Breedsville, Michigan
Current Conditions -  °F | °C
As of 12:15 AM on Wednesday 26 Nov 2014 (Local Time) from KLWA Reporting Station
Overcast Overcast  
Wind Chill: 22°   Ceiling: 2300
Heat Index: 28°   Visibility: 10mi
Dew Point: 22°   Wind: 6mph
Humidity: 77%   Direction: 200°SSW
Pressure: 30.19"   Gusts: NA
Location:  42.35°N, 86.07°W
Report Text: KLWA 260515Z AUTO 20005KT 10SM OVC023 M02/M05 A3019 RMK AO2 T10201055
Loading
Personal Weather Stations






























Interactive Weather Map New forecast layout! Learn more

10-Day Weather Forecast

Advertisements
Track Severe Weather on mobile